sensor_id;sensor_type;location;lat;lon;timestamp;P1;durP1;ratioP1;P2;durP2;ratioP2
59649;SDS011;46162;57.568;25.814;2023-06-14T00:01:07;22.15;;;3.60;;
59649;SDS011;46162;57.568;25.814;2023-06-14T00:03:36;21.63;;;3.17;;
59649;SDS011;46162;57.568;25.814;2023-06-14T00:06:05;9.05;;;2.38;;
59649;SDS011;46162;57.568;25.814;2023-06-14T00:08:35;16.83;;;2.45;;
59649;SDS011;46162;57.568;25.814;2023-06-14T00:11:04;11.10;;;2.00;;
59649;SDS011;46162;57.568;25.814;2023-06-14T00:13:32;17.70;;;2.90;;
59649;SDS011;46162;57.568;25.814;2023-06-14T00:16:01;11.50;;;2.75;;
59649;SDS011;46162;57.568;25.814;2023-06-14T00:18:31;15.35;;;2.80;;
59649;SDS011;46162;57.568;25.814;2023-06-14T00:20:59;7.43;;;1.55;;
59649;SDS011;46162;57.568;25.814;2023-06-14T00:23:29;6.72;;;1.52;;
59649;SDS011;46162;57.568;25.814;2023-06-14T00:25:59;9.60;;;1.92;;
59649;SDS011;46162;57.568;25.814;2023-06-14T00:28:27;7.90;;;1.73;;
59649;SDS011;46162;57.568;25.814;2023-06-14T00:30:56;13.93;;;2.40;;
59649;SDS011;46162;57.568;25.814;2023-06-14T00:33:24;10.70;;;2.10;;
59649;SDS011;46162;57.568;25.814;2023-06-14T00:35:53;13.77;;;2.00;;
59649;SDS011;46162;57.568;25.814;2023-06-14T00:38:21;10.02;;;2.08;;
59649;SDS011;46162;57.568;25.814;2023-06-14T00:40:50;10.15;;;2.85;;
59649;SDS011;46162;57.568;25.814;2023-06-14T00:43:20;10.40;;;2.58;;
59649;SDS011;46162;57.568;25.814;2023-06-14T00:45:49;11.68;;;2.67;;
59649;SDS011;46162;57.568;25.814;2023-06-14T00:48:18;15.10;;;2.80;;
59649;SDS011;46162;57.568;25.814;2023-06-14T00:50:47;7.35;;;2.47;;
59649;SDS011;46162;57.568;25.814;2023-06-14T00:53:19;9.70;;;1.80;;
59649;SDS011;46162;57.568;25.814;2023-06-14T00:55:50;8.85;;;2.15;;
59649;SDS011;46162;57.568;25.814;2023-06-14T00:58:20;9.45;;;1.90;;
59649;SDS011;46162;57.568;25.814;2023-06-14T01:00:50;14.73;;;2.42;;
59649;SDS011;46162;57.568;25.814;2023-06-14T01:03:19;10.55;;;2.30;;
59649;SDS011;46162;57.568;25.814;2023-06-14T01:05:49;15.77;;;2.33;;
59649;SDS011;46162;57.568;25.814;2023-06-14T01:08:23;14.50;;;3.15;;
59649;SDS011;46162;57.568;25.814;2023-06-14T01:10:57;12.05;;;2.72;;
59649;SDS011;46162;57.568;25.814;2023-06-14T01:13:33;13.80;;;2.50;;
59649;SDS011;46162;57.568;25.814;2023-06-14T01:16:04;15.05;;;2.25;;
59649;SDS011;46162;57.568;25.814;2023-06-14T01:18:35;12.32;;;2.28;;
59649;SDS011;46162;57.568;25.814;2023-06-14T01:21:04;9.38;;;1.80;;
59649;SDS011;46162;57.568;25.814;2023-06-14T01:23:34;19.38;;;2.50;;
59649;SDS011;46162;57.568;25.814;2023-06-14T01:26:03;12.02;;;2.30;;
59649;SDS011;46162;57.568;25.814;2023-06-14T01:28:32;9.38;;;2.17;;
59649;SDS011;46162;57.568;25.814;2023-06-14T01:31:03;13.13;;;1.67;;
59649;SDS011;46162;57.568;25.814;2023-06-14T01:33:32;9.20;;;2.03;;
59649;SDS011;46162;57.568;25.814;2023-06-14T01:36:03;9.48;;;2.22;;
59649;SDS011;46162;57.568;25.814;2023-06-14T01:38:36;10.45;;;2.33;;
59649;SDS011;46162;57.568;25.814;2023-06-14T01:43:34;15.50;;;3.60;;
59649;SDS011;46162;57.568;25.814;2023-06-14T01:46:04;13.73;;;2.40;;
59649;SDS011;46162;57.568;25.814;2023-06-14T01:48:34;12.95;;;2.83;;
59649;SDS011;46162;57.568;25.814;2023-06-14T01:51:03;12.40;;;3.05;;
59649;SDS011;46162;57.568;25.814;2023-06-14T01:53:31;22.08;;;3.70;;
59649;SDS011;46162;57.568;25.814;2023-06-14T01:56:01;22.45;;;3.42;;
59649;SDS011;46162;57.568;25.814;2023-06-14T01:58:30;24.50;;;3.20;;
59649;SDS011;46162;57.568;25.814;2023-06-14T02:01:00;13.43;;;3.20;;
59649;SDS011;46162;57.568;25.814;2023-06-14T02:03:29;22.45;;;3.88;;
59649;SDS011;46162;57.568;25.814;2023-06-14T02:05:58;16.52;;;2.97;;
59649;SDS011;46162;57.568;25.814;2023-06-14T02:08:27;14.70;;;3.85;;
59649;SDS011;46162;57.568;25.814;2023-06-14T02:10:55;16.38;;;3.90;;
59649;SDS011;46162;57.568;25.814;2023-06-14T02:13:25;17.02;;;4.45;;
59649;SDS011;46162;57.568;25.814;2023-06-14T02:15:54;15.32;;;4.00;;
59649;SDS011;46162;57.568;25.814;2023-06-14T02:18:25;12.50;;;4.10;;
59649;SDS011;46162;57.568;25.814;2023-06-14T02:20:55;15.63;;;3.97;;
59649;SDS011;46162;57.568;25.814;2023-06-14T02:23:24;11.93;;;3.33;;
59649;SDS011;46162;57.568;25.814;2023-06-14T02:25:52;15.13;;;4.15;;
59649;SDS011;46162;57.568;25.814;2023-06-14T02:28:21;11.65;;;3.88;;
59649;SDS011;46162;57.568;25.814;2023-06-14T02:30:51;16.15;;;4.03;;
59649;SDS011;46162;57.568;25.814;2023-06-14T02:33:22;14.98;;;4.15;;
59649;SDS011;46162;57.568;25.814;2023-06-14T02:35:52;9.70;;;3.63;;
59649;SDS011;46162;57.568;25.814;2023-06-14T02:38:20;13.60;;;3.90;;
59649;SDS011;46162;57.568;25.814;2023-06-14T02:40:49;11.93;;;3.97;;
59649;SDS011;46162;57.568;25.814;2023-06-14T02:43:17;13.45;;;3.78;;
59649;SDS011;46162;57.568;25.814;2023-06-14T02:45:47;10.90;;;3.17;;
59649;SDS011;46162;57.568;25.814;2023-06-14T02:48:16;9.93;;;2.47;;
59649;SDS011;46162;57.568;25.814;2023-06-14T02:50:45;11.20;;;2.40;;
59649;SDS011;46162;57.568;25.814;2023-06-14T02:53:14;15.30;;;3.22;;
59649;SDS011;46162;57.568;25.814;2023-06-14T02:55:42;12.60;;;2.35;;
59649;SDS011;46162;57.568;25.814;2023-06-14T02:58:11;9.85;;;2.33;;
59649;SDS011;46162;57.568;25.814;2023-06-14T03:00:40;11.55;;;3.30;;
59649;SDS011;46162;57.568;25.814;2023-06-14T03:03:09;14.50;;;2.88;;
59649;SDS011;46162;57.568;25.814;2023-06-14T03:05:49;13.77;;;3.05;;
59649;SDS011;46162;57.568;25.814;2023-06-14T03:08:22;9.70;;;2.47;;
59649;SDS011;46162;57.568;25.814;2023-06-14T03:10:56;11.68;;;2.70;;
59649;SDS011;46162;57.568;25.814;2023-06-14T03:13:25;11.57;;;3.05;;
59649;SDS011;46162;57.568;25.814;2023-06-14T03:15:54;12.05;;;3.10;;
59649;SDS011;46162;57.568;25.814;2023-06-14T03:18:24;8.05;;;2.80;;
59649;SDS011;46162;57.568;25.814;2023-06-14T03:20:57;13.43;;;4.03;;
59649;SDS011;46162;57.568;25.814;2023-06-14T03:23:27;10.52;;;4.15;;
59649;SDS011;46162;57.568;25.814;2023-06-14T03:25:56;11.05;;;3.55;;
59649;SDS011;46162;57.568;25.814;2023-06-14T03:28:25;14.18;;;3.83;;
59649;SDS011;46162;57.568;25.814;2023-06-14T03:30:55;7.15;;;3.28;;
59649;SDS011;46162;57.568;25.814;2023-06-14T03:33:25;11.43;;;3.70;;
59649;SDS011;46162;57.568;25.814;2023-06-14T03:35:54;8.98;;;2.65;;
59649;SDS011;46162;57.568;25.814;2023-06-14T03:38:25;10.10;;;3.60;;
59649;SDS011;46162;57.568;25.814;2023-06-14T03:40:54;40.97;;;5.38;;
59649;SDS011;46162;57.568;25.814;2023-06-14T03:43:22;17.08;;;4.10;;
59649;SDS011;46162;57.568;25.814;2023-06-14T03:45:52;15.35;;;3.75;;
59649;SDS011;46162;57.568;25.814;2023-06-14T03:48:22;11.00;;;3.67;;
59649;SDS011;46162;57.568;25.814;2023-06-14T03:50:52;9.13;;;3.42;;
59649;SDS011;46162;57.568;25.814;2023-06-14T03:53:27;12.13;;;4.07;;
59649;SDS011;46162;57.568;25.814;2023-06-14T03:55:57;13.65;;;4.47;;
59649;SDS011;46162;57.568;25.814;2023-06-14T03:58:35;18.25;;;4.15;;
59649;SDS011;46162;57.568;25.814;2023-06-14T04:01:05;8.85;;;3.42;;
59649;SDS011;46162;57.568;25.814;2023-06-14T04:03:33;8.20;;;3.45;;
59649;SDS011;46162;57.568;25.814;2023-06-14T04:06:03;7.45;;;3.70;;
59649;SDS011;46162;57.568;25.814;2023-06-14T04:08:33;11.02;;;3.50;;
59649;SDS011;46162;57.568;25.814;2023-06-14T04:11:02;7.40;;;3.40;;
59649;SDS011;46162;57.568;25.814;2023-06-14T04:13:31;8.77;;;3.72;;
59649;SDS011;46162;57.568;25.814;2023-06-14T04:16:03;9.13;;;3.42;;
59649;SDS011;46162;57.568;25.814;2023-06-14T04:18:34;9.38;;;3.13;;
59649;SDS011;46162;57.568;25.814;2023-06-14T04:21:03;10.82;;;3.15;;
59649;SDS011;46162;57.568;25.814;2023-06-14T04:23:35;7.80;;;3.15;;
59649;SDS011;46162;57.568;25.814;2023-06-14T04:26:05;9.52;;;3.10;;
59649;SDS011;46162;57.568;25.814;2023-06-14T04:28:33;6.72;;;3.17;;
59649;SDS011;46162;57.568;25.814;2023-06-14T04:31:04;7.07;;;2.83;;
59649;SDS011;46162;57.568;25.814;2023-06-14T04:33:35;12.20;;;2.95;;
59649;SDS011;46162;57.568;25.814;2023-06-14T04:36:14;11.95;;;3.05;;
59649;SDS011;46162;57.568;25.814;2023-06-14T04:38:48;7.22;;;2.15;;
59649;SDS011;46162;57.568;25.814;2023-06-14T04:41:23;10.80;;;2.63;;
59649;SDS011;46162;57.568;25.814;2023-06-14T04:43:56;11.63;;;2.88;;
59649;SDS011;46162;57.568;25.814;2023-06-14T04:46:25;7.10;;;2.17;;
59649;SDS011;46162;57.568;25.814;2023-06-14T04:48:55;10.60;;;3.07;;
59649;SDS011;46162;57.568;25.814;2023-06-14T04:51:24;9.70;;;2.40;;
59649;SDS011;46162;57.568;25.814;2023-06-14T04:53:58;5.18;;;2.20;;
59649;SDS011;46162;57.568;25.814;2023-06-14T04:56:28;7.50;;;2.10;;
59649;SDS011;46162;57.568;25.814;2023-06-14T04:58:57;7.40;;;1.83;;
59649;SDS011;46162;57.568;25.814;2023-06-14T05:01:26;8.80;;;1.80;;
59649;SDS011;46162;57.568;25.814;2023-06-14T05:03:54;6.55;;;2.03;;
59649;SDS011;46162;57.568;25.814;2023-06-14T05:06:23;9.40;;;2.28;;
59649;SDS011;46162;57.568;25.814;2023-06-14T05:08:53;9.02;;;2.25;;
59649;SDS011;46162;57.568;25.814;2023-06-14T05:11:23;4.78;;;2.08;;
59649;SDS011;46162;57.568;25.814;2023-06-14T05:13:53;5.68;;;1.90;;
59649;SDS011;46162;57.568;25.814;2023-06-14T05:16:22;6.03;;;1.80;;
59649;SDS011;46162;57.568;25.814;2023-06-14T05:18:52;12.15;;;2.22;;
59649;SDS011;46162;57.568;25.814;2023-06-14T05:21:21;6.35;;;1.92;;
59649;SDS011;46162;57.568;25.814;2023-06-14T05:23:50;6.05;;;2.10;;
59649;SDS011;46162;57.568;25.814;2023-06-14T05:26:23;6.88;;;2.05;;
59649;SDS011;46162;57.568;25.814;2023-06-14T05:28:55;8.40;;;1.90;;
59649;SDS011;46162;57.568;25.814;2023-06-14T05:31:24;10.38;;;2.20;;
59649;SDS011;46162;57.568;25.814;2023-06-14T05:33:53;9.18;;;2.08;;
59649;SDS011;46162;57.568;25.814;2023-06-14T05:36:22;6.75;;;1.90;;
59649;SDS011;46162;57.568;25.814;2023-06-14T05:38:50;7.43;;;1.95;;
59649;SDS011;46162;57.568;25.814;2023-06-14T05:41:26;6.70;;;1.98;;
59649;SDS011;46162;57.568;25.814;2023-06-14T05:43:55;12.75;;;1.80;;
59649;SDS011;46162;57.568;25.814;2023-06-14T05:46:24;7.80;;;2.38;;
59649;SDS011;46162;57.568;25.814;2023-06-14T05:48:53;5.93;;;1.27;;
59649;SDS011;46162;57.568;25.814;2023-06-14T05:51:22;6.10;;;1.55;;
59649;SDS011;46162;57.568;25.814;2023-06-14T05:53:52;7.50;;;1.30;;
59649;SDS011;46162;57.568;25.814;2023-06-14T05:56:21;8.60;;;1.67;;
59649;SDS011;46162;57.568;25.814;2023-06-14T05:58:51;8.85;;;1.95;;
59649;SDS011;46162;57.568;25.814;2023-06-14T06:01:20;5.53;;;1.05;;
59649;SDS011;46162;57.568;25.814;2023-06-14T06:03:48;5.93;;;1.30;;
59649;SDS011;46162;57.568;25.814;2023-06-14T06:06:19;9.13;;;1.20;;
59649;SDS011;46162;57.568;25.814;2023-06-14T06:08:49;11.68;;;1.15;;
59649;SDS011;46162;57.568;25.814;2023-06-14T06:11:17;10.52;;;1.10;;
59649;SDS011;46162;57.568;25.814;2023-06-14T06:13:46;6.47;;;1.10;;
59649;SDS011;46162;57.568;25.814;2023-06-14T06:16:16;8.32;;;1.23;;
59649;SDS011;46162;57.568;25.814;2023-06-14T06:18:45;11.38;;;1.60;;
59649;SDS011;46162;57.568;25.814;2023-06-14T06:21:14;6.28;;;0.60;;
59649;SDS011;46162;57.568;25.814;2023-06-14T06:23:42;10.02;;;0.95;;
59649;SDS011;46162;57.568;25.814;2023-06-14T06:26:11;5.88;;;0.73;;
59649;SDS011;46162;57.568;25.814;2023-06-14T06:28:40;10.82;;;1.40;;
59649;SDS011;46162;57.568;25.814;2023-06-14T06:31:08;10.43;;;1.08;;
59649;SDS011;46162;57.568;25.814;2023-06-14T06:33:39;12.15;;;1.20;;
59649;SDS011;46162;57.568;25.814;2023-06-14T06:36:08;10.95;;;0.88;;
59649;SDS011;46162;57.568;25.814;2023-06-14T06:38:38;16.15;;;1.40;;
59649;SDS011;46162;57.568;25.814;2023-06-14T06:41:07;10.65;;;1.35;;
59649;SDS011;46162;57.568;25.814;2023-06-14T06:43:39;7.13;;;0.80;;
59649;SDS011;46162;57.568;25.814;2023-06-14T06:46:09;6.03;;;1.00;;
59649;SDS011;46162;57.568;25.814;2023-06-14T06:48:39;12.75;;;1.15;;
59649;SDS011;46162;57.568;25.814;2023-06-14T06:51:08;10.18;;;0.93;;
59649;SDS011;46162;57.568;25.814;2023-06-14T06:53:37;9.65;;;0.80;;
59649;SDS011;46162;57.568;25.814;2023-06-14T06:56:12;9.70;;;0.70;;
59649;SDS011;46162;57.568;25.814;2023-06-14T06:58:40;3.15;;;0.80;;
59649;SDS011;46162;57.568;25.814;2023-06-14T07:01:09;6.60;;;0.82;;
59649;SDS011;46162;57.568;25.814;2023-06-14T07:03:40;6.47;;;0.80;;
59649;SDS011;46162;57.568;25.814;2023-06-14T07:06:08;5.07;;;0.50;;
59649;SDS011;46162;57.568;25.814;2023-06-14T07:08:37;10.07;;;0.63;;
59649;SDS011;46162;57.568;25.814;2023-06-14T07:11:06;5.32;;;0.75;;
59649;SDS011;46162;57.568;25.814;2023-06-14T07:13:35;6.88;;;0.68;;
59649;SDS011;46162;57.568;25.814;2023-06-14T07:16:04;5.45;;;0.60;;
59649;SDS011;46162;57.568;25.814;2023-06-14T07:18:32;6.15;;;0.65;;
59649;SDS011;46162;57.568;25.814;2023-06-14T07:21:03;6.10;;;0.60;;
59649;SDS011;46162;57.568;25.814;2023-06-14T07:23:32;8.48;;;0.60;;
59649;SDS011;46162;57.568;25.814;2023-06-14T07:26:01;6.10;;;0.57;;
59649;SDS011;46162;57.568;25.814;2023-06-14T07:28:29;8.13;;;0.63;;
59649;SDS011;46162;57.568;25.814;2023-06-14T07:30:59;8.00;;;0.88;;
59649;SDS011;46162;57.568;25.814;2023-06-14T07:33:27;4.60;;;0.70;;
59649;SDS011;46162;57.568;25.814;2023-06-14T07:35:56;7.43;;;0.60;;
59649;SDS011;46162;57.568;25.814;2023-06-14T07:38:26;6.72;;;0.68;;
59649;SDS011;46162;57.568;25.814;2023-06-14T07:40:55;4.55;;;0.60;;
59649;SDS011;46162;57.568;25.814;2023-06-14T07:43:23;4.28;;;0.60;;
59649;SDS011;46162;57.568;25.814;2023-06-14T07:48:58;6.28;;;0.60;;
59649;SDS011;46162;57.568;25.814;2023-06-14T07:51:27;5.82;;;0.73;;
59649;SDS011;46162;57.568;25.814;2023-06-14T07:53:58;6.15;;;0.95;;
59649;SDS011;46162;57.568;25.814;2023-06-14T07:56:29;3.83;;;0.60;;
59649;SDS011;46162;57.568;25.814;2023-06-14T07:58:57;6.28;;;0.60;;
59649;SDS011;46162;57.568;25.814;2023-06-14T08:01:26;4.22;;;0.70;;
59649;SDS011;46162;57.568;25.814;2023-06-14T08:03:55;6.65;;;0.70;;
59649;SDS011;46162;57.568;25.814;2023-06-14T08:06:23;3.70;;;0.60;;
59649;SDS011;46162;57.568;25.814;2023-06-14T08:08:53;7.68;;;0.85;;
59649;SDS011;46162;57.568;25.814;2023-06-14T08:11:23;5.30;;;0.70;;
59649;SDS011;46162;57.568;25.814;2023-06-14T08:13:52;3.67;;;0.50;;
59649;SDS011;46162;57.568;25.814;2023-06-14T08:16:20;4.95;;;0.60;;
59649;SDS011;46162;57.568;25.814;2023-06-14T08:18:49;4.13;;;0.60;;
59649;SDS011;46162;57.568;25.814;2023-06-14T08:21:18;5.30;;;0.43;;
59649;SDS011;46162;57.568;25.814;2023-06-14T08:23:47;37.85;;;1.55;;
59649;SDS011;46162;57.568;25.814;2023-06-14T08:26:15;22.20;;;1.35;;
59649;SDS011;46162;57.568;25.814;2023-06-14T08:28:46;6.82;;;0.65;;
59649;SDS011;46162;57.568;25.814;2023-06-14T08:31:14;4.75;;;0.90;;
59649;SDS011;46162;57.568;25.814;2023-06-14T08:33:43;3.38;;;0.80;;
59649;SDS011;46162;57.568;25.814;2023-06-14T08:36:12;4.80;;;0.57;;
59649;SDS011;46162;57.568;25.814;2023-06-14T08:38:41;3.97;;;0.57;;
59649;SDS011;46162;57.568;25.814;2023-06-14T08:41:10;4.32;;;0.60;;
59649;SDS011;46162;57.568;25.814;2023-06-14T08:43:41;3.03;;;0.57;;
59649;SDS011;46162;57.568;25.814;2023-06-14T08:46:11;8.13;;;0.70;;
59649;SDS011;46162;57.568;25.814;2023-06-14T08:48:43;6.72;;;0.98;;
59649;SDS011;46162;57.568;25.814;2023-06-14T08:51:12;5.82;;;0.73;;
59649;SDS011;46162;57.568;25.814;2023-06-14T08:53:43;4.25;;;0.75;;
59649;SDS011;46162;57.568;25.814;2023-06-14T08:56:12;4.28;;;1.02;;
59649;SDS011;46162;57.568;25.814;2023-06-14T08:58:42;4.82;;;1.00;;
59649;SDS011;46162;57.568;25.814;2023-06-14T09:01:13;5.50;;;0.60;;
59649;SDS011;46162;57.568;25.814;2023-06-14T09:03:44;6.72;;;0.65;;
59649;SDS011;46162;57.568;25.814;2023-06-14T09:06:15;4.82;;;1.30;;
59649;SDS011;46162;57.568;25.814;2023-06-14T09:08:46;31.95;;;1.92;;
59649;SDS011;46162;57.568;25.814;2023-06-14T09:11:16;7.60;;;0.80;;
59649;SDS011;46162;57.568;25.814;2023-06-14T09:16:16;8.63;;;0.70;;
59649;SDS011;46162;57.568;25.814;2023-06-14T09:18:45;4.50;;;0.85;;
59649;SDS011;46162;57.568;25.814;2023-06-14T09:21:15;5.55;;;0.70;;
59649;SDS011;46162;57.568;25.814;2023-06-14T09:23:45;7.55;;;0.85;;
59649;SDS011;46162;57.568;25.814;2023-06-14T09:26:15;7.47;;;0.70;;
59649;SDS011;46162;57.568;25.814;2023-06-14T09:28:47;3.65;;;0.60;;
59649;SDS011;46162;57.568;25.814;2023-06-14T09:33:48;7.07;;;0.60;;
59649;SDS011;46162;57.568;25.814;2023-06-14T09:36:18;3.72;;;0.47;;
59649;SDS011;46162;57.568;25.814;2023-06-14T09:38:52;4.50;;;0.57;;
59649;SDS011;46162;57.568;25.814;2023-06-14T09:41:27;5.75;;;0.77;;
59649;SDS011;46162;57.568;25.814;2023-06-14T09:43:59;3.95;;;0.57;;
59649;SDS011;46162;57.568;25.814;2023-06-14T09:46:35;5.88;;;0.60;;
59649;SDS011;46162;57.568;25.814;2023-06-14T09:49:05;6.32;;;0.63;;
59649;SDS011;46162;57.568;25.814;2023-06-14T09:54:12;4.30;;;0.70;;
59649;SDS011;46162;57.568;25.814;2023-06-14T09:56:44;5.35;;;0.73;;
59649;SDS011;46162;57.568;25.814;2023-06-14T09:59:14;4.22;;;0.50;;
59649;SDS011;46162;57.568;25.814;2023-06-14T10:01:49;6.32;;;0.70;;
59649;SDS011;46162;57.568;25.814;2023-06-14T10:06:47;6.90;;;1.20;;
59649;SDS011;46162;57.568;25.814;2023-06-14T10:09:18;4.53;;;0.82;;
59649;SDS011;46162;57.568;25.814;2023-06-14T10:11:48;2.30;;;0.57;;
59649;SDS011;46162;57.568;25.814;2023-06-14T10:14:18;8.38;;;0.60;;
59649;SDS011;46162;57.568;25.814;2023-06-14T10:16:49;10.55;;;0.70;;
59649;SDS011;46162;57.568;25.814;2023-06-14T10:19:27;6.72;;;0.70;;
59649;SDS011;46162;57.568;25.814;2023-06-14T10:22:02;3.95;;;0.63;;
59649;SDS011;46162;57.568;25.814;2023-06-14T10:24:38;2.13;;;0.50;;
59649;SDS011;46162;57.568;25.814;2023-06-14T10:27:10;3.45;;;0.47;;
59649;SDS011;46162;57.568;25.814;2023-06-14T10:32:32;5.35;;;0.80;;
59649;SDS011;46162;57.568;25.814;2023-06-14T10:35:01;5.55;;;0.65;;
59649;SDS011;46162;57.568;25.814;2023-06-14T10:37:33;7.10;;;0.82;;
59649;SDS011;46162;57.568;25.814;2023-06-14T10:40:02;8.25;;;0.82;;
59649;SDS011;46162;57.568;25.814;2023-06-14T10:42:34;4.13;;;0.70;;
59649;SDS011;46162;57.568;25.814;2023-06-14T10:45:03;8.82;;;1.33;;
59649;SDS011;46162;57.568;25.814;2023-06-14T10:47:34;6.63;;;0.85;;
59649;SDS011;46162;57.568;25.814;2023-06-14T10:50:05;4.20;;;1.00;;
59649;SDS011;46162;57.568;25.814;2023-06-14T10:55:13;4.45;;;1.08;;
59649;SDS011;46162;57.568;25.814;2023-06-14T10:57:44;4.18;;;0.65;;
59649;SDS011;46162;57.568;25.814;2023-06-14T11:00:18;6.63;;;0.80;;
59649;SDS011;46162;57.568;25.814;2023-06-14T11:06:13;4.22;;;0.70;;
59649;SDS011;46162;57.568;25.814;2023-06-14T11:08:51;2.65;;;0.60;;
59649;SDS011;46162;57.568;25.814;2023-06-14T11:11:39;4.10;;;0.75;;
59649;SDS011;46162;57.568;25.814;2023-06-14T11:14:11;4.60;;;0.93;;
59649;SDS011;46162;57.568;25.814;2023-06-14T11:16:39;4.72;;;0.88;;
59649;SDS011;46162;57.568;25.814;2023-06-14T11:19:09;6.78;;;0.90;;
59649;SDS011;46162;57.568;25.814;2023-06-14T11:21:39;4.82;;;1.23;;
59649;SDS011;46162;57.568;25.814;2023-06-14T11:24:09;6.30;;;1.15;;
59649;SDS011;46162;57.568;25.814;2023-06-14T11:26:40;5.53;;;0.98;;
59649;SDS011;46162;57.568;25.814;2023-06-14T11:29:08;3.17;;;0.73;;
59649;SDS011;46162;57.568;25.814;2023-06-14T11:31:38;4.10;;;0.80;;
59649;SDS011;46162;57.568;25.814;2023-06-14T11:34:13;7.32;;;1.10;;
59649;SDS011;46162;57.568;25.814;2023-06-14T11:36:43;7.65;;;1.27;;
59649;SDS011;46162;57.568;25.814;2023-06-14T11:39:12;4.53;;;0.97;;
59649;SDS011;46162;57.568;25.814;2023-06-14T11:41:42;6.43;;;0.70;;
59649;SDS011;46162;57.568;25.814;2023-06-14T11:44:12;6.45;;;0.85;;
59649;SDS011;46162;57.568;25.814;2023-06-14T11:46:40;12.68;;;1.52;;
59649;SDS011;46162;57.568;25.814;2023-06-14T11:49:09;4.88;;;1.10;;
59649;SDS011;46162;57.568;25.814;2023-06-14T11:51:39;14.48;;;1.55;;
59649;SDS011;46162;57.568;25.814;2023-06-14T11:54:11;27.65;;;2.20;;
59649;SDS011;46162;57.568;25.814;2023-06-14T11:56:40;9.70;;;1.02;;
59649;SDS011;46162;57.568;25.814;2023-06-14T11:59:09;5.13;;;1.02;;
59649;SDS011;46162;57.568;25.814;2023-06-14T12:01:42;10.10;;;1.15;;
59649;SDS011;46162;57.568;25.814;2023-06-14T12:04:12;4.22;;;0.77;;
59649;SDS011;46162;57.568;25.814;2023-06-14T12:06:42;5.28;;;0.90;;
59649;SDS011;46162;57.568;25.814;2023-06-14T12:09:10;7.40;;;1.15;;
59649;SDS011;46162;57.568;25.814;2023-06-14T12:11:44;6.15;;;1.13;;
59649;SDS011;46162;57.568;25.814;2023-06-14T12:14:12;6.18;;;0.88;;
59649;SDS011;46162;57.568;25.814;2023-06-14T12:16:41;5.57;;;1.25;;
59649;SDS011;46162;57.568;25.814;2023-06-14T12:19:13;8.02;;;1.17;;
59649;SDS011;46162;57.568;25.814;2023-06-14T12:21:46;5.03;;;1.08;;
59649;SDS011;46162;57.568;25.814;2023-06-14T12:24:16;5.50;;;1.23;;
59649;SDS011;46162;57.568;25.814;2023-06-14T12:26:45;6.78;;;1.17;;
59649;SDS011;46162;57.568;25.814;2023-06-14T12:29:14;6.00;;;1.05;;
59649;SDS011;46162;57.568;25.814;2023-06-14T12:31:42;5.10;;;1.10;;
59649;SDS011;46162;57.568;25.814;2023-06-14T12:34:11;14.40;;;1.17;;
59649;SDS011;46162;57.568;25.814;2023-06-14T12:36:40;4.13;;;1.08;;
59649;SDS011;46162;57.568;25.814;2023-06-14T12:39:10;7.18;;;1.02;;
59649;SDS011;46162;57.568;25.814;2023-06-14T12:41:39;5.75;;;1.70;;
59649;SDS011;46162;57.568;25.814;2023-06-14T12:44:09;4.85;;;0.90;;
59649;SDS011;46162;57.568;25.814;2023-06-14T12:46:39;5.22;;;1.20;;
59649;SDS011;46162;57.568;25.814;2023-06-14T12:49:09;5.20;;;1.40;;
59649;SDS011;46162;57.568;25.814;2023-06-14T12:51:38;6.07;;;1.60;;
59649;SDS011;46162;57.568;25.814;2023-06-14T12:54:07;5.40;;;1.05;;
59649;SDS011;46162;57.568;25.814;2023-06-14T12:56:38;4.10;;;1.25;;
59649;SDS011;46162;57.568;25.814;2023-06-14T12:59:08;5.95;;;1.08;;
59649;SDS011;46162;57.568;25.814;2023-06-14T13:01:37;3.38;;;1.05;;
59649;SDS011;46162;57.568;25.814;2023-06-14T13:04:06;4.32;;;1.13;;
59649;SDS011;46162;57.568;25.814;2023-06-14T13:06:35;3.53;;;1.10;;
59649;SDS011;46162;57.568;25.814;2023-06-14T13:09:04;3.78;;;1.08;;
59649;SDS011;46162;57.568;25.814;2023-06-14T13:11:35;4.13;;;1.13;;
59649;SDS011;46162;57.568;25.814;2023-06-14T13:14:06;3.55;;;0.90;;
59649;SDS011;46162;57.568;25.814;2023-06-14T13:16:51;5.72;;;1.00;;
59649;SDS011;46162;57.568;25.814;2023-06-14T13:19:20;4.60;;;1.20;;
59649;SDS011;46162;57.568;25.814;2023-06-14T13:21:50;6.53;;;1.42;;
59649;SDS011;46162;57.568;25.814;2023-06-14T13:24:18;6.88;;;1.55;;
59649;SDS011;46162;57.568;25.814;2023-06-14T13:26:47;6.28;;;1.17;;
59649;SDS011;46162;57.568;25.814;2023-06-14T13:29:17;8.20;;;1.45;;
59649;SDS011;46162;57.568;25.814;2023-06-14T13:31:46;4.22;;;1.17;;
59649;SDS011;46162;57.568;25.814;2023-06-14T13:34:15;8.57;;;1.45;;
59649;SDS011;46162;57.568;25.814;2023-06-14T13:36:44;3.97;;;1.10;;
59649;SDS011;46162;57.568;25.814;2023-06-14T13:39:12;4.55;;;1.17;;
59649;SDS011;46162;57.568;25.814;2023-06-14T13:41:41;4.55;;;1.33;;
59649;SDS011;46162;57.568;25.814;2023-06-14T13:44:10;3.38;;;1.15;;
59649;SDS011;46162;57.568;25.814;2023-06-14T13:46:44;4.38;;;1.25;;
59649;SDS011;46162;57.568;25.814;2023-06-14T13:49:12;3.72;;;1.33;;
59649;SDS011;46162;57.568;25.814;2023-06-14T13:51:41;7.63;;;0.95;;
59649;SDS011;46162;57.568;25.814;2023-06-14T13:54:11;4.63;;;1.38;;
59649;SDS011;46162;57.568;25.814;2023-06-14T13:56:41;5.60;;;1.10;;
59649;SDS011;46162;57.568;25.814;2023-06-14T13:59:09;3.65;;;1.38;;
59649;SDS011;46162;57.568;25.814;2023-06-14T14:01:39;5.32;;;1.92;;
59649;SDS011;46162;57.568;25.814;2023-06-14T14:04:09;4.72;;;1.40;;
59649;SDS011;46162;57.568;25.814;2023-06-14T14:06:38;3.63;;;1.70;;
59649;SDS011;46162;57.568;25.814;2023-06-14T14:09:07;5.38;;;1.73;;
59649;SDS011;46162;57.568;25.814;2023-06-14T14:11:36;7.07;;;1.30;;
59649;SDS011;46162;57.568;25.814;2023-06-14T14:14:06;3.85;;;1.27;;
59649;SDS011;46162;57.568;25.814;2023-06-14T14:16:35;7.38;;;1.45;;
59649;SDS011;46162;57.568;25.814;2023-06-14T14:19:04;5.90;;;1.38;;
59649;SDS011;46162;57.568;25.814;2023-06-14T14:21:34;7.70;;;1.15;;
59649;SDS011;46162;57.568;25.814;2023-06-14T14:24:04;5.03;;;1.15;;
59649;SDS011;46162;57.568;25.814;2023-06-14T14:26:33;6.63;;;1.30;;
59649;SDS011;46162;57.568;25.814;2023-06-14T14:29:01;5.93;;;1.48;;
59649;SDS011;46162;57.568;25.814;2023-06-14T14:31:30;4.18;;;1.10;;
59649;SDS011;46162;57.568;25.814;2023-06-14T14:33:59;4.05;;;1.40;;
59649;SDS011;46162;57.568;25.814;2023-06-14T14:36:27;6.95;;;1.70;;
59649;SDS011;46162;57.568;25.814;2023-06-14T14:38:58;3.67;;;1.35;;
59649;SDS011;46162;57.568;25.814;2023-06-14T14:41:27;4.95;;;1.15;;
59649;SDS011;46162;57.568;25.814;2023-06-14T14:43:55;6.55;;;1.35;;
59649;SDS011;46162;57.568;25.814;2023-06-14T14:46:25;5.07;;;1.60;;
59649;SDS011;46162;57.568;25.814;2023-06-14T14:48:54;8.60;;;1.70;;
59649;SDS011;46162;57.568;25.814;2023-06-14T14:51:22;9.70;;;1.42;;
59649;SDS011;46162;57.568;25.814;2023-06-14T14:53:51;7.47;;;1.40;;
59649;SDS011;46162;57.568;25.814;2023-06-14T14:58:52;6.97;;;1.40;;
59649;SDS011;46162;57.568;25.814;2023-06-14T15:01:21;7.85;;;1.70;;
59649;SDS011;46162;57.568;25.814;2023-06-14T15:03:49;10.80;;;1.60;;
59649;SDS011;46162;57.568;25.814;2023-06-14T15:06:25;7.95;;;1.42;;
59649;SDS011;46162;57.568;25.814;2023-06-14T15:08:53;8.25;;;1.38;;
59649;SDS011;46162;57.568;25.814;2023-06-14T15:11:24;5.90;;;1.42;;
59649;SDS011;46162;57.568;25.814;2023-06-14T15:13:53;9.27;;;1.33;;